createdAt,value
2023-05-22T00:01:49.353Z,11.90
2023-05-22T00:04:21.167Z,11.90
2023-05-22T00:06:49.239Z,11.90
2023-05-22T00:09:18.472Z,12.00
2023-05-22T00:11:47.924Z,12.00
2023-05-22T00:14:15.772Z,12.00
2023-05-22T00:16:43.964Z,11.90
2023-05-22T00:19:13.573Z,11.80
2023-05-22T00:21:41.610Z,11.80
2023-05-22T00:24:10.195Z,11.70
2023-05-22T00:26:38.108Z,11.60
2023-05-22T00:29:07.273Z,11.40
2023-05-22T00:31:35.081Z,11.40
2023-05-22T00:34:02.920Z,11.30
2023-05-22T00:36:30.749Z,11.30
2023-05-22T00:38:58.566Z,11.40
2023-05-22T00:41:26.467Z,11.40
2023-05-22T00:43:54.797Z,11.40
2023-05-22T00:46:24.554Z,11.40
2023-05-22T00:48:53.453Z,11.40
2023-05-22T00:51:22.252Z,11.50
2023-05-22T00:53:50.875Z,11.40
2023-05-22T00:56:19.695Z,11.40
2023-05-22T00:58:47.698Z,11.40
2023-05-22T01:01:16.105Z,11.40
2023-05-22T01:03:46.952Z,11.50
2023-05-22T01:06:15.829Z,11.40
2023-05-22T01:08:44.015Z,11.50
2023-05-22T01:11:17.284Z,11.50
2023-05-22T01:13:56.039Z,11.40
2023-05-22T01:16:31.029Z,11.30
2023-05-22T01:19:11.904Z,11.30
2023-05-22T01:21:48.802Z,11.30
2023-05-22T01:24:54.116Z,11.30
2023-05-22T01:27:43.817Z,11.20
2023-05-22T01:30:35.941Z,11.30
2023-05-22T01:33:11.679Z,11.30
2023-05-22T01:35:41.591Z,11.40
2023-05-22T01:38:10.030Z,11.40
2023-05-22T01:40:38.981Z,11.50
2023-05-22T01:43:07.005Z,11.50
2023-05-22T01:45:35.353Z,11.50
2023-05-22T01:48:03.261Z,11.50
2023-05-22T01:50:32.662Z,11.50
2023-05-22T01:53:08.792Z,11.50
2023-05-22T01:55:45.215Z,11.50
2023-05-22T01:58:22.247Z,11.50
2023-05-22T02:00:54.609Z,11.60
2023-05-22T02:03:28.361Z,11.70
2023-05-22T02:06:00.501Z,11.90
2023-05-22T02:08:29.945Z,12.00
2023-05-22T02:10:58.902Z,11.90
2023-05-22T02:13:27.236Z,11.90
2023-05-22T02:15:57.037Z,11.90
2023-05-22T02:18:30.916Z,11.90
2023-05-22T02:21:00.617Z,12.00
2023-05-22T02:23:29.492Z,12.00
2023-05-22T02:25:57.615Z,12.10
2023-05-22T02:28:25.475Z,12.10
2023-05-22T02:30:53.493Z,12.10
2023-05-22T02:33:21.468Z,12.10
2023-05-22T02:35:49.318Z,12.20
2023-05-22T02:38:18.556Z,12.20
2023-05-22T02:40:47.097Z,12.30
2023-05-22T02:43:14.919Z,12.30
2023-05-22T02:45:42.724Z,12.30
2023-05-22T02:48:11.282Z,12.30
2023-05-22T02:50:39.426Z,12.30
2023-05-22T02:53:08.387Z,12.30
2023-05-22T02:55:37.553Z,12.40
2023-05-22T02:58:05.892Z,12.50
2023-05-22T03:00:33.840Z,12.50
2023-05-22T03:03:01.826Z,12.60
2023-05-22T03:05:29.718Z,12.60
2023-05-22T03:07:58.039Z,12.60
2023-05-22T03:10:25.981Z,12.60
2023-05-22T03:12:55.203Z,12.60
2023-05-22T03:15:23.230Z,12.60
2023-05-22T03:17:51.091Z,12.60
2023-05-22T03:20:18.940Z,12.60
2023-05-22T03:22:46.794Z,12.60
2023-05-22T03:25:14.673Z,12.60
2023-05-22T03:27:42.474Z,12.70
2023-05-22T03:30:12.702Z,12.70
2023-05-22T03:32:40.966Z,12.80
2023-05-22T03:35:09.871Z,12.90
2023-05-22T03:37:37.727Z,12.90
2023-05-22T03:40:06.572Z,12.90
2023-05-22T03:42:34.418Z,12.90
2023-05-22T03:45:02.261Z,13.00
2023-05-22T03:47:31.410Z,13.10
2023-05-22T03:49:59.212Z,13.00
2023-05-22T03:52:26.991Z,13.00
2023-05-22T03:54:54.778Z,13.00
2023-05-22T03:57:22.624Z,13.10
2023-05-22T03:59:50.461Z,13.10
2023-05-22T04:02:18.432Z,13.10
2023-05-22T04:04:47.699Z,13.10
2023-05-22T04:07:18.319Z,13.10
2023-05-22T04:09:46.246Z,13.20
2023-05-22T04:12:14.092Z,13.20
2023-05-22T04:14:41.907Z,13.10
2023-05-22T04:17:11.570Z,13.20
2023-05-22T04:19:39.387Z,13.10
2023-05-22T04:22:08.529Z,13.10
2023-05-22T04:24:36.323Z,13.10
2023-05-22T04:27:04.302Z,13.20
2023-05-22T04:29:32.144Z,13.20
2023-05-22T04:32:00.232Z,13.30
2023-05-22T04:34:28.591Z,13.30
2023-05-22T04:36:56.441Z,13.30
2023-05-22T04:39:26.300Z,13.30
2023-05-22T04:41:54.269Z,13.30
2023-05-22T04:44:22.974Z,13.30
2023-05-22T04:46:52.159Z,13.40
2023-05-22T04:49:20.505Z,13.40
2023-05-22T04:51:48.341Z,13.50
2023-05-22T04:54:16.172Z,13.50
2023-05-22T04:56:45.362Z,13.60
2023-05-22T04:59:16.241Z,13.70
2023-05-22T05:01:45.389Z,13.80
2023-05-22T05:04:13.499Z,13.90
2023-05-22T05:06:41.314Z,14.10
2023-05-22T05:09:09.163Z,14.20
2023-05-22T05:11:36.995Z,14.70
2023-05-22T05:14:06.178Z,15.10
2023-05-22T05:16:34.033Z,15.80
2023-05-22T05:19:02.154Z,16.30
2023-05-22T05:21:30.048Z,16.50
2023-05-22T05:23:57.832Z,16.60
2023-05-22T05:26:27.026Z,16.30
2023-05-22T05:28:56.972Z,16.20
2023-05-22T05:31:26.395Z,16.20
2023-05-22T05:33:56.615Z,16.10
2023-05-22T05:36:25.507Z,16.00
2023-05-22T05:38:54.155Z,16.00
2023-05-22T05:41:22.008Z,16.20
2023-05-22T05:43:49.793Z,16.30
2023-05-22T05:46:17.770Z,16.40
2023-05-22T05:48:46.996Z,16.70
2023-05-22T05:51:14.900Z,17.00
2023-05-22T05:53:42.731Z,17.10
2023-05-22T05:56:10.803Z,17.10
2023-05-22T05:58:38.791Z,17.30
2023-05-22T06:01:06.658Z,17.30
2023-05-22T06:03:34.890Z,17.30
2023-05-22T06:06:05.656Z,17.60
2023-05-22T06:08:34.560Z,17.90
2023-05-22T06:11:03.383Z,18.30
2023-05-22T06:13:31.215Z,18.90
2023-05-22T06:16:01.823Z,19.70
2023-05-22T06:18:32.008Z,20.30
2023-05-22T06:20:59.841Z,20.10
2023-05-22T06:23:29.066Z,20.40
2023-05-22T06:25:57.328Z,20.70
2023-05-22T06:28:25.200Z,20.80
2023-05-22T06:30:53.173Z,21.20
2023-05-22T06:33:21.278Z,21.40
2023-05-22T06:35:49.204Z,22.00
2023-05-22T06:38:17.047Z,22.30
2023-05-22T06:40:46.201Z,22.10
2023-05-22T06:43:14.019Z,22.00
2023-05-22T06:45:41.860Z,21.10
2023-05-22T06:48:09.723Z,20.60
2023-05-22T06:50:37.847Z,20.20
2023-05-22T06:53:06.496Z,20.40
2023-05-22T06:55:34.378Z,20.50
2023-05-22T06:58:03.739Z,20.70
2023-05-22T07:00:31.535Z,20.70
2023-05-22T07:02:59.405Z,20.60
2023-05-22T07:05:27.315Z,20.30
2023-05-22T07:07:55.218Z,20.50
2023-05-22T07:10:24.950Z,21.00
2023-05-22T07:12:52.749Z,20.60
2023-05-22T07:15:21.888Z,20.40
2023-05-22T07:17:49.785Z,20.60
2023-05-22T07:20:18.233Z,20.30
2023-05-22T07:22:46.046Z,20.50
2023-05-22T07:25:13.935Z,20.60
2023-05-22T07:27:41.775Z,20.90
2023-05-22T07:30:10.538Z,21.90
2023-05-22T07:32:39.802Z,22.70
2023-05-22T07:35:08.457Z,23.20
2023-05-22T07:37:36.526Z,22.50
2023-05-22T07:40:05.125Z,21.10
2023-05-22T07:42:33.054Z,21.00
2023-05-22T07:45:01.367Z,20.50
2023-05-22T07:47:29.203Z,20.50
2023-05-22T07:49:58.448Z,20.70
2023-05-22T07:52:26.290Z,20.70
2023-05-22T07:54:54.571Z,20.80
2023-05-22T07:57:22.998Z,20.70
2023-05-22T07:59:50.909Z,20.50
2023-05-22T08:02:18.886Z,20.70
2023-05-22T08:04:48.274Z,21.30
2023-05-22T08:07:17.523Z,21.90
2023-05-22T08:09:46.813Z,21.90
2023-05-22T08:12:14.641Z,21.50
2023-05-22T08:14:42.486Z,21.60
2023-05-22T08:17:10.424Z,22.30
2023-05-22T08:19:38.462Z,22.80
2023-05-22T08:22:06.866Z,22.30
2023-05-22T08:24:36.559Z,21.50
2023-05-22T08:27:05.394Z,21.00
2023-05-22T08:29:33.282Z,20.70
2023-05-22T08:32:01.245Z,21.50
2023-05-22T08:34:29.396Z,22.20
2023-05-22T08:36:57.277Z,22.50
2023-05-22T08:39:25.125Z,23.30
2023-05-22T08:41:54.314Z,23.50
2023-05-22T08:44:22.214Z,23.00
2023-05-22T08:46:52.475Z,22.20
2023-05-22T08:49:23.865Z,22.90
2023-05-22T08:51:56.991Z,23.90
2023-05-22T08:54:27.520Z,23.80
2023-05-22T08:56:57.593Z,23.30
2023-05-22T08:59:25.895Z,23.30
2023-05-22T09:01:54.568Z,24.10
2023-05-22T09:04:24.156Z,23.60
2023-05-22T09:06:52.678Z,23.40
2023-05-22T09:09:20.710Z,23.00
2023-05-22T09:11:48.617Z,24.00
2023-05-22T09:14:17.828Z,24.40
2023-05-22T09:16:46.663Z,23.50
2023-05-22T09:19:14.892Z,24.10
2023-05-22T09:21:44.299Z,24.00
2023-05-22T09:24:12.836Z,23.40
2023-05-22T09:26:41.032Z,24.40
2023-05-22T09:29:09.358Z,23.50
2023-05-22T09:31:44.629Z,24.50
2023-05-22T09:34:15.652Z,24.50
2023-05-22T09:36:43.937Z,25.10
2023-05-22T09:39:11.907Z,25.70
2023-05-22T09:41:40.884Z,25.90
2023-05-22T09:44:14.131Z,26.10
2023-05-22T09:46:45.979Z,25.80
2023-05-22T09:49:16.556Z,25.60
2023-05-22T09:51:47.774Z,26.00
2023-05-22T09:54:17.601Z,26.20
2023-05-22T09:56:50.057Z,25.50
2023-05-22T09:59:23.391Z,25.10
2023-05-22T10:01:53.649Z,25.30
2023-05-22T10:04:23.629Z,24.70
2023-05-22T10:06:53.731Z,25.10
2023-05-22T10:09:25.084Z,25.40
2023-05-22T10:11:56.017Z,25.80
2023-05-22T10:14:24.885Z,25.00
2023-05-22T10:16:55.092Z,25.40
2023-05-22T10:19:27.148Z,25.40
2023-05-22T10:21:57.252Z,24.80
2023-05-22T10:24:26.083Z,24.50
2023-05-22T10:26:55.239Z,24.60
2023-05-22T10:29:30.472Z,24.90
2023-05-22T10:32:07.567Z,25.20
2023-05-22T10:34:44.606Z,25.30
2023-05-22T10:37:28.083Z,24.80
2023-05-22T10:40:02.321Z,25.00
2023-05-22T10:42:31.485Z,25.00
2023-05-22T10:45:01.583Z,24.80
2023-05-22T10:47:30.827Z,24.60
2023-05-22T10:50:08.272Z,24.90
2023-05-22T10:52:36.453Z,25.00
2023-05-22T10:55:07.906Z,25.30
2023-05-22T10:57:37.967Z,25.10
2023-05-22T11:00:10.858Z,25.10
2023-05-22T11:02:44.835Z,25.60
2023-05-22T11:05:35.484Z,25.40
2023-05-22T11:08:38.654Z,24.90
2023-05-22T11:11:14.404Z,25.00
2023-05-22T11:13:43.570Z,25.30
2023-05-22T11:16:12.328Z,25.50
2023-05-22T11:18:41.593Z,26.00
2023-05-22T11:21:13.467Z,26.00
2023-05-22T11:23:42.123Z,25.80
2023-05-22T11:26:22.341Z,25.40
2023-05-22T11:28:53.137Z,25.50
2023-05-22T11:31:23.130Z,25.50
2023-05-22T11:33:52.472Z,25.50
2023-05-22T11:36:21.133Z,25.60
2023-05-22T11:38:49.039Z,25.30
2023-05-22T11:41:17.175Z,25.30
2023-05-22T11:43:45.253Z,25.50
2023-05-22T11:46:14.133Z,25.40
2023-05-22T11:48:43.254Z,25.90
2023-05-22T11:51:12.489Z,25.70
2023-05-22T11:53:42.277Z,25.80
2023-05-22T11:56:10.129Z,26.00
2023-05-22T11:58:37.935Z,26.30
2023-05-22T12:01:06.992Z,26.30
2023-05-22T12:03:34.967Z,25.40
2023-05-22T12:06:03.218Z,25.80
2023-05-22T12:08:32.559Z,26.20
2023-05-22T12:11:00.688Z,26.20
2023-05-22T12:13:30.272Z,26.30
2023-05-22T12:16:00.956Z,26.30
2023-05-22T12:18:36.190Z,26.50
2023-05-22T12:21:07.337Z,26.30
2023-05-22T12:23:36.742Z,26.20
2023-05-22T12:26:09.838Z,26.20
2023-05-22T12:28:39.808Z,26.50
2023-05-22T12:31:07.648Z,25.50
2023-05-22T12:33:35.532Z,25.40
2023-05-22T12:36:09.213Z,25.10
2023-05-22T12:38:39.548Z,24.90
2023-05-22T12:41:07.539Z,25.00
2023-05-22T12:43:35.519Z,25.00
2023-05-22T12:46:03.465Z,25.10
2023-05-22T12:48:31.358Z,24.80
2023-05-22T12:50:59.234Z,24.80
2023-05-22T12:53:27.102Z,25.10
2023-05-22T12:55:56.556Z,24.90
2023-05-22T12:58:24.442Z,24.80
2023-05-22T13:00:52.614Z,24.80
2023-05-22T13:03:20.504Z,24.70
2023-05-22T13:05:48.372Z,23.90
2023-05-22T13:08:16.294Z,23.10
2023-05-22T13:10:44.135Z,22.60
2023-05-22T13:13:14.005Z,22.20
2023-05-22T13:15:42.122Z,21.80
2023-05-22T13:18:10.238Z,21.60
2023-05-22T13:20:38.538Z,20.50
2023-05-22T13:23:06.535Z,19.90
2023-05-22T13:25:34.432Z,19.60
2023-05-22T13:28:02.470Z,19.10
2023-05-22T13:30:32.180Z,18.60
2023-05-22T13:33:00.198Z,18.10
2023-05-22T13:35:28.248Z,17.90
2023-05-22T13:37:56.113Z,18.00
2023-05-22T13:40:24.158Z,18.00
2023-05-22T13:42:53.018Z,18.00
2023-05-22T13:45:21.116Z,18.00
2023-05-22T13:47:50.713Z,18.00
2023-05-22T13:50:18.736Z,18.00
2023-05-22T13:52:46.656Z,17.90
2023-05-22T13:55:14.532Z,18.00
2023-05-22T13:57:42.543Z,18.00
2023-05-22T14:00:11.469Z,18.00
2023-05-22T14:02:39.344Z,17.90
2023-05-22T14:05:09.656Z,17.70
2023-05-22T14:07:37.503Z,17.70
2023-05-22T14:10:05.876Z,17.70
2023-05-22T14:12:33.738Z,17.60
2023-05-22T14:15:02.397Z,17.60
2023-05-22T14:17:30.426Z,17.70
2023-05-22T14:19:59.046Z,17.80
2023-05-22T14:22:28.337Z,17.80
2023-05-22T14:24:56.933Z,17.90
2023-05-22T14:27:24.823Z,17.80
2023-05-22T14:29:52.681Z,17.90
2023-05-22T14:32:20.493Z,18.00
2023-05-22T14:34:48.324Z,17.90
2023-05-22T14:37:16.214Z,17.80
2023-05-22T14:39:45.464Z,17.80
2023-05-22T14:42:13.468Z,17.80
2023-05-22T14:44:41.312Z,17.90
2023-05-22T14:47:09.166Z,17.90
2023-05-22T14:49:37.006Z,17.90
2023-05-22T14:52:04.926Z,17.90
2023-05-22T14:54:32.756Z,17.90
2023-05-22T14:57:01.914Z,17.90
2023-05-22T14:59:29.779Z,18.00
2023-05-22T15:01:57.666Z,18.10
2023-05-22T15:04:25.555Z,18.30
2023-05-22T15:06:53.410Z,18.30
2023-05-22T15:09:21.239Z,18.40
2023-05-22T15:11:50.650Z,18.40
2023-05-22T15:14:21.473Z,18.40
2023-05-22T15:16:50.212Z,18.20
2023-05-22T15:19:18.288Z,18.10
2023-05-22T15:21:46.139Z,18.20
2023-05-22T15:24:14.240Z,18.20
2023-05-22T15:26:42.143Z,18.30
2023-05-22T15:29:09.981Z,18.40
2023-05-22T15:31:39.334Z,18.40
2023-05-22T15:34:07.250Z,18.30
2023-05-22T15:36:37.028Z,18.10
2023-05-22T15:39:05.142Z,17.70
2023-05-22T15:41:33.015Z,17.60
2023-05-22T15:44:01.150Z,17.70
2023-05-22T15:46:29.404Z,18.00
2023-05-22T15:48:58.696Z,18.20
2023-05-22T15:51:26.502Z,18.50
2023-05-22T15:53:54.407Z,18.70
2023-05-22T15:56:23.378Z,18.60
2023-05-22T15:58:51.632Z,18.40
2023-05-22T16:01:19.518Z,18.30
2023-05-22T16:03:47.534Z,18.40
2023-05-22T16:06:16.806Z,18.50
2023-05-22T16:08:44.612Z,18.70
2023-05-22T16:11:12.471Z,19.00
2023-05-22T16:13:40.521Z,19.10
2023-05-22T16:16:08.674Z,19.30
2023-05-22T16:18:36.513Z,19.40
2023-05-22T16:21:04.559Z,19.50
2023-05-22T16:23:33.741Z,19.50
2023-05-22T16:26:01.607Z,19.50
2023-05-22T16:28:29.540Z,19.60
2023-05-22T16:30:57.500Z,19.60
2023-05-22T16:33:25.409Z,19.50
2023-05-22T16:35:53.260Z,19.40
2023-05-22T16:38:21.090Z,19.50
2023-05-22T16:40:50.362Z,19.70
2023-05-22T16:43:18.279Z,19.80
2023-05-22T16:45:50.821Z,19.70
2023-05-22T16:48:18.791Z,19.70
2023-05-22T16:50:46.902Z,19.60
2023-05-22T16:53:16.723Z,19.30
2023-05-22T16:55:44.690Z,19.20
2023-05-22T16:58:14.004Z,19.00
2023-05-22T17:00:42.907Z,18.80
2023-05-22T17:03:11.929Z,18.80
2023-05-22T17:05:40.370Z,18.80
2023-05-22T17:08:08.517Z,19.00
2023-05-22T17:10:36.515Z,19.00
2023-05-22T17:13:04.384Z,19.10
2023-05-22T17:15:33.701Z,19.00
2023-05-22T17:18:01.641Z,18.90
2023-05-22T17:20:29.824Z,18.90
2023-05-22T17:22:57.654Z,18.90
2023-05-22T17:25:25.541Z,18.70
2023-05-22T17:27:53.328Z,18.90
2023-05-22T17:30:21.335Z,19.00
2023-05-22T17:32:53.315Z,19.00
2023-05-22T17:35:21.310Z,19.10
2023-05-22T17:37:49.244Z,19.20
2023-05-22T17:40:18.105Z,19.20
2023-05-22T17:42:45.986Z,19.10
2023-05-22T17:45:13.773Z,19.20
2023-05-22T17:47:41.646Z,19.20
2023-05-22T17:50:12.012Z,19.30
2023-05-22T17:52:40.951Z,19.20
2023-05-22T17:55:09.937Z,19.00
2023-05-22T17:57:37.753Z,19.00
2023-05-22T18:00:09.759Z,19.00
2023-05-22T18:02:37.728Z,18.90
2023-05-22T18:05:07.269Z,18.80
2023-05-22T18:07:36.400Z,18.60
2023-05-22T18:10:05.083Z,18.40
2023-05-22T18:12:32.908Z,18.30
2023-05-22T18:15:00.837Z,18.30
2023-05-22T18:17:28.739Z,18.40
2023-05-22T18:19:56.607Z,18.40
2023-05-22T18:22:25.541Z,18.50
2023-05-22T18:24:54.696Z,18.60
2023-05-22T18:27:22.970Z,18.50
2023-05-22T18:29:51.751Z,18.40
2023-05-22T18:32:19.654Z,18.20
2023-05-22T18:34:48.548Z,18.10
2023-05-22T18:37:16.471Z,18.00
2023-05-22T18:39:44.290Z,18.00
2023-05-22T18:42:13.592Z,18.00
2023-05-22T18:44:41.626Z,17.80
2023-05-22T18:47:09.541Z,17.70
2023-05-22T18:49:37.378Z,17.60
2023-05-22T18:52:05.563Z,17.40
2023-05-22T18:54:33.407Z,17.20
2023-05-22T18:57:01.276Z,17.10
2023-05-22T18:59:30.680Z,17.00
2023-05-22T19:01:58.486Z,16.90
2023-05-22T19:04:26.417Z,16.90
2023-05-22T19:06:54.296Z,16.80
2023-05-22T19:09:22.209Z,16.70
2023-05-22T19:11:50.072Z,16.50
2023-05-22T19:14:18.079Z,16.40
2023-05-22T19:16:47.258Z,16.20
2023-05-22T19:19:15.292Z,16.10
2023-05-22T19:21:43.210Z,16.00
2023-05-22T19:24:11.037Z,15.90
2023-05-22T19:26:38.858Z,15.80
2023-05-22T19:29:06.653Z,15.70
2023-05-22T19:31:35.808Z,15.70
2023-05-22T19:34:05.939Z,15.60
2023-05-22T19:36:34.570Z,15.60
2023-05-22T19:39:02.416Z,15.50
2023-05-22T19:41:30.245Z,15.50
2023-05-22T19:43:58.361Z,15.50
2023-05-22T19:46:26.535Z,15.40
2023-05-22T19:48:54.378Z,15.40
2023-05-22T19:51:23.501Z,15.40
2023-05-22T19:53:51.598Z,15.30
2023-05-22T19:56:19.494Z,15.20
2023-05-22T19:58:47.297Z,15.20
2023-05-22T20:01:15.157Z,15.10
2023-05-22T20:03:43.899Z,15.10
2023-05-22T20:06:12.418Z,15.00
2023-05-22T20:08:42.350Z,15.00
2023-05-22T20:11:10.196Z,15.00
2023-05-22T20:13:38.000Z,14.90
2023-05-22T20:16:11.641Z,14.80
2023-05-22T20:18:41.040Z,14.70
2023-05-22T20:21:09.294Z,14.70
2023-05-22T20:23:37.193Z,14.60
2023-05-22T20:26:06.456Z,14.50
2023-05-22T20:28:34.550Z,14.50
2023-05-22T20:31:02.367Z,14.40
2023-05-22T20:33:30.174Z,14.40
2023-05-22T20:35:58.505Z,14.30
2023-05-22T20:38:28.427Z,14.30
2023-05-22T20:40:58.434Z,14.20
2023-05-22T20:43:30.733Z,14.10
2023-05-22T20:45:58.595Z,14.10
2023-05-22T20:48:26.415Z,14.10
2023-05-22T20:50:54.256Z,14.00
2023-05-22T20:53:22.088Z,14.00
2023-05-22T20:55:52.056Z,14.00
2023-05-22T20:58:22.868Z,14.00
2023-05-22T21:00:52.091Z,13.90
2023-05-22T21:03:20.140Z,13.90
2023-05-22T21:05:47.971Z,13.80
2023-05-22T21:08:15.795Z,13.80
2023-05-22T21:10:43.610Z,13.80
2023-05-22T21:13:11.430Z,13.80
2023-05-22T21:15:39.369Z,13.70
2023-05-22T21:18:08.713Z,13.70
2023-05-22T21:20:36.546Z,13.70
2023-05-22T21:23:04.386Z,13.70
2023-05-22T21:25:32.640Z,13.60
2023-05-22T21:28:01.735Z,13.60
2023-05-22T21:30:29.569Z,13.60
2023-05-22T21:32:57.424Z,13.50
2023-05-22T21:35:26.596Z,13.50
2023-05-22T21:37:54.687Z,13.50
2023-05-22T21:40:22.581Z,13.50
2023-05-22T21:42:50.388Z,13.50
2023-05-22T21:45:18.201Z,13.40
2023-05-22T21:47:46.082Z,13.40
2023-05-22T21:50:13.944Z,13.30
2023-05-22T21:52:44.232Z,13.30
2023-05-22T21:55:12.140Z,13.20
2023-05-22T21:57:39.976Z,13.20
2023-05-22T22:00:09.015Z,13.20
2023-05-22T22:02:37.022Z,13.10
2023-05-22T22:05:05.836Z,13.10
2023-05-22T22:07:33.627Z,13.10
2023-05-22T22:10:02.788Z,13.10
2023-05-22T22:12:30.883Z,13.10
2023-05-22T22:14:58.777Z,13.10
2023-05-22T22:17:26.623Z,13.00
2023-05-22T22:19:56.910Z,13.00
2023-05-22T22:22:25.515Z,13.00
2023-05-22T22:24:53.348Z,12.90
2023-05-22T22:27:22.532Z,12.90
2023-05-22T22:29:50.374Z,12.90
2023-05-22T22:32:18.668Z,12.90
2023-05-22T22:34:46.958Z,12.90
2023-05-22T22:37:14.862Z,13.00
2023-05-22T22:39:42.671Z,12.90
2023-05-22T22:42:10.486Z,12.80
2023-05-22T22:44:39.667Z,12.80
2023-05-22T22:47:08.316Z,12.80
2023-05-22T22:49:37.273Z,12.80
2023-05-22T22:52:05.447Z,12.90
2023-05-22T22:54:33.455Z,12.90
2023-05-22T22:57:01.307Z,12.90
2023-05-22T22:59:29.171Z,13.00
2023-05-22T23:01:58.549Z,12.90
2023-05-22T23:04:28.281Z,12.90
2023-05-22T23:06:57.526Z,12.80
2023-05-22T23:09:25.473Z,12.70
2023-05-22T23:11:53.302Z,12.60
2023-05-22T23:14:21.110Z,12.50
2023-05-22T23:16:48.897Z,12.50
2023-05-22T23:19:18.095Z,12.40
2023-05-22T23:21:46.058Z,12.50
2023-05-22T23:24:13.871Z,12.60
2023-05-22T23:26:41.709Z,12.60
2023-05-22T23:29:09.566Z,12.50
2023-05-22T23:31:37.484Z,12.40
2023-05-22T23:34:05.496Z,12.30
2023-05-22T23:36:34.698Z,12.30
2023-05-22T23:39:02.498Z,12.30
2023-05-22T23:41:30.392Z,12.20
2023-05-22T23:43:58.205Z,12.20
2023-05-22T23:46:26.132Z,12.20
2023-05-22T23:48:53.957Z,12.20
2023-05-22T23:51:21.762Z,12.20
2023-05-22T23:53:51.047Z,12.20
2023-05-22T23:56:18.871Z,12.10
2023-05-22T23:58:46.690Z,12.20
